createdAt,value
2022-12-19T00:00:14.816Z,98992.16
2022-12-19T00:02:16.595Z,98988.72
2022-12-19T00:04:19.957Z,98988.75
2022-12-19T00:06:21.260Z,98983.56
2022-12-19T00:08:22.584Z,98975.09
2022-12-19T00:10:23.881Z,98976.72
2022-12-19T00:12:25.172Z,98977.53
2022-12-19T00:14:26.477Z,98984.31
2022-12-19T00:16:27.795Z,98985.09
2022-12-19T00:18:29.508Z,98963.75
2022-12-19T00:20:30.840Z,98972.25
2022-12-19T00:22:32.124Z,98974.75
2022-12-19T00:24:33.454Z,98974.75
2022-12-19T00:26:34.743Z,98959.41
2022-12-19T00:28:36.245Z,98967.03
2022-12-19T00:30:37.549Z,98967.06
2022-12-19T00:32:39.168Z,98975.59
2022-12-19T00:34:40.460Z,98957.69
2022-12-19T00:36:41.825Z,98957.72
2022-12-19T00:38:43.108Z,98941.56
2022-12-19T00:40:44.654Z,98939.03
2022-12-19T00:42:51.696Z,98929.72
2022-12-19T00:44:54.616Z,98935.69
2022-12-19T00:46:55.940Z,98928.06
2022-12-19T00:48:57.224Z,98929.78
2022-12-19T00:50:58.505Z,98919.59
2022-12-19T00:52:59.797Z,98917.94
2022-12-19T00:55:01.267Z,98893.25
2022-12-19T00:57:05.108Z,98909.44
2022-12-19T00:59:06.422Z,98886.47
2022-12-19T01:01:07.791Z,98901.81
2022-12-19T01:03:09.170Z,98895.03
2022-12-19T01:05:12.344Z,98900.13
2022-12-19T01:07:13.640Z,98887.41
2022-12-19T01:09:14.971Z,98885.69
2022-12-19T01:11:16.266Z,98879.75
2022-12-19T01:13:17.553Z,98876.38
2022-12-19T01:15:18.893Z,98874.66
2022-12-19T01:17:20.225Z,98879.75
2022-12-19T01:19:21.872Z,98870.38
2022-12-19T01:21:23.160Z,98872.94
2022-12-19T01:23:24.446Z,98885.69
2022-12-19T01:25:25.745Z,98906.09
2022-12-19T01:27:27.028Z,98935.00
2022-12-19T01:29:28.312Z,98942.66
2022-12-19T01:31:29.665Z,98949.44
2022-12-19T01:33:30.971Z,98951.09
2022-12-19T01:35:32.266Z,98962.06
2022-12-19T01:37:33.552Z,98972.22
2022-12-19T01:39:34.843Z,98974.75
2022-12-19T01:41:37.856Z,98981.63
2022-12-19T01:43:39.146Z,98972.22
2022-12-19T01:45:45.815Z,98959.41
2022-12-19T01:47:47.618Z,98951.72
2022-12-19T01:49:51.780Z,98948.31
2022-12-19T01:51:53.111Z,98942.34
2022-12-19T01:53:54.409Z,98938.94
2022-12-19T01:55:55.692Z,98917.69
2022-12-19T01:57:57.007Z,98923.69
2022-12-19T01:59:58.309Z,98916.88
2022-12-19T02:01:59.825Z,98910.94
2022-12-19T02:04:01.267Z,98898.16
2022-12-19T02:06:02.559Z,98894.78
2022-12-19T02:08:03.865Z,98883.75
2022-12-19T02:10:05.168Z,98882.94
2022-12-19T02:12:06.582Z,98873.59
2022-12-19T02:14:07.897Z,98857.44
2022-12-19T02:16:09.242Z,98871.94
2022-12-19T02:18:10.567Z,98871.13
2022-12-19T02:20:11.900Z,98866.06
2022-12-19T02:22:18.768Z,98845.59
2022-12-19T02:24:20.331Z,98843.06
2022-12-19T02:26:21.641Z,98859.28
2022-12-19T02:28:22.982Z,98841.41
2022-12-19T02:30:26.297Z,98849.94
2022-12-19T02:32:27.594Z,98845.69
2022-12-19T02:34:28.926Z,98843.13
2022-12-19T02:36:30.230Z,98839.75
2022-12-19T02:38:34.255Z,98836.34
2022-12-19T02:40:35.581Z,98836.28
2022-12-19T02:42:37.126Z,98822.63
2022-12-19T02:44:38.458Z,98812.41
2022-12-19T02:46:40.202Z,98809.75
2022-12-19T02:48:41.513Z,98817.31
2022-12-19T02:50:42.854Z,98806.03
2022-12-19T02:52:47.056Z,98790.66
2022-12-19T02:54:48.396Z,98792.22
2022-12-19T02:56:49.729Z,98799.00
2022-12-19T02:58:51.066Z,98798.06
2022-12-19T03:00:52.470Z,98804.00
2022-12-19T03:03:00.248Z,98808.25
2022-12-19T03:05:03.189Z,98815.09
2022-12-19T03:07:04.485Z,98817.69
2022-12-19T03:09:05.761Z,98814.28
2022-12-19T03:11:07.198Z,98834.75
2022-12-19T03:13:08.503Z,98834.88
2022-12-19T03:15:10.114Z,98833.16
2022-12-19T03:17:11.529Z,98841.72
2022-12-19T03:19:12.849Z,98851.13
2022-12-19T03:21:14.237Z,98840.94
2022-12-19T03:23:15.905Z,98855.53
2022-12-19T03:25:18.398Z,98840.31
2022-12-19T03:27:19.777Z,98829.31
2022-12-19T03:29:21.074Z,98832.84
2022-12-19T03:31:22.545Z,98833.72
2022-12-19T03:33:23.868Z,98841.44
2022-12-19T03:35:25.174Z,98827.84
2022-12-19T03:37:26.511Z,98831.31
2022-12-19T03:39:27.893Z,98828.81
2022-12-19T03:41:47.698Z,98823.75
2022-12-19T03:43:49.030Z,98817.81
2022-12-19T03:45:50.623Z,98822.91
2022-12-19T03:47:52.069Z,98822.06
2022-12-19T03:49:53.450Z,98828.88
2022-12-19T03:51:59.215Z,98835.63
2022-12-19T03:54:00.806Z,98843.28
2022-12-19T03:56:02.088Z,98852.63
2022-12-19T03:58:03.663Z,98827.84
2022-12-19T04:00:04.963Z,98837.19
2022-12-19T04:02:06.359Z,98854.16
2022-12-19T04:04:10.508Z,98847.34
2022-12-19T04:06:11.819Z,98843.03
2022-12-19T04:08:13.160Z,98848.06
2022-12-19T04:10:14.864Z,98855.69
2022-12-19T04:12:16.181Z,98857.25
2022-12-19T04:14:17.518Z,98860.63
2022-12-19T04:16:18.924Z,98858.88
2022-12-19T04:18:20.310Z,98864.00
2022-12-19T04:20:22.092Z,98857.94
2022-12-19T04:22:23.389Z,98846.81
2022-12-19T04:24:24.675Z,98849.38
2022-12-19T04:26:26.001Z,98839.94
2022-12-19T04:28:27.345Z,98842.41
2022-12-19T04:30:28.646Z,98843.25
2022-12-19T04:32:30.432Z,98845.81
2022-12-19T04:34:31.776Z,98844.13
2022-12-19T04:36:33.075Z,98846.75
2022-12-19T04:38:34.397Z,98839.94
2022-12-19T04:40:40.819Z,98841.75
2022-12-19T04:42:42.955Z,98831.56
2022-12-19T04:44:44.320Z,98835.03
2022-12-19T04:46:45.712Z,98829.13
2022-12-19T04:48:47.063Z,98823.25
2022-12-19T04:50:48.412Z,98813.94
2022-12-19T04:52:53.229Z,98808.88
2022-12-19T04:54:56.952Z,98808.88
2022-12-19T04:56:58.245Z,98804.66
2022-12-19T04:59:00.192Z,98814.03
2022-12-19T05:01:01.503Z,98822.59
2022-12-19T05:03:02.925Z,98814.13
2022-12-19T05:05:04.395Z,98800.50
2022-12-19T05:07:05.685Z,98797.97
2022-12-19T05:09:07.008Z,98787.84
2022-12-19T05:11:08.341Z,98787.84
2022-12-19T05:13:09.630Z,98787.88
2022-12-19T05:15:11.841Z,98793.06
2022-12-19T05:17:13.143Z,98805.84
2022-12-19T05:19:15.032Z,98803.34
2022-12-19T05:21:16.461Z,98805.91
2022-12-19T05:23:17.997Z,98795.69
2022-12-19T05:25:19.340Z,98791.41
2022-12-19T05:27:20.638Z,98790.50
2022-12-19T05:29:21.945Z,98793.78
2022-12-19T05:31:23.350Z,98805.59
2022-12-19T05:33:24.683Z,98797.03
2022-12-19T05:35:26.001Z,98797.84
2022-12-19T05:37:27.317Z,98789.25
2022-12-19T05:39:28.610Z,98784.06
2022-12-19T05:41:30.469Z,98778.88
2022-12-19T05:43:31.884Z,98772.81
2022-12-19T05:45:33.193Z,98772.72
2022-12-19T05:47:34.808Z,98769.28
2022-12-19T05:49:36.145Z,98766.66
2022-12-19T05:51:37.557Z,98763.16
2022-12-19T05:53:38.856Z,98763.19
2022-12-19T05:55:40.430Z,98754.72
2022-12-19T05:57:44.401Z,98750.47
2022-12-19T05:59:45.729Z,98759.00
2022-12-19T06:01:47.124Z,98775.16
2022-12-19T06:03:48.529Z,98766.63
2022-12-19T06:05:49.878Z,98766.63
2022-12-19T06:07:51.198Z,98770.91
2022-12-19T06:09:52.524Z,98768.34
2022-12-19T06:11:53.849Z,98772.72
2022-12-19T06:13:55.605Z,98776.16
2022-12-19T06:15:56.936Z,98777.06
2022-12-19T06:17:58.255Z,98783.09
2022-12-19T06:19:59.547Z,98778.00
2022-12-19T06:22:00.879Z,98780.59
2022-12-19T06:24:02.238Z,98780.63
2022-12-19T06:26:03.526Z,98780.66
2022-12-19T06:28:04.869Z,98780.69
2022-12-19T06:30:06.175Z,98787.59
2022-12-19T06:32:07.469Z,98800.41
2022-12-19T06:34:10.125Z,98805.56
2022-12-19T06:36:11.427Z,98799.66
2022-12-19T06:38:12.737Z,98780.09
2022-12-19T06:40:33.984Z,98786.06
2022-12-19T06:42:35.326Z,98783.59
2022-12-19T06:44:36.688Z,98785.34
2022-12-19T06:46:37.977Z,98792.16
2022-12-19T06:48:39.334Z,98804.09
2022-12-19T06:50:40.697Z,98803.25
2022-12-19T06:52:42.201Z,98793.88
2022-12-19T06:54:43.811Z,98807.41
2022-12-19T06:56:45.098Z,98820.94
2022-12-19T06:58:46.449Z,98822.59
2022-12-19T07:00:47.877Z,98826.84
2022-12-19T07:02:49.280Z,98819.97
2022-12-19T07:04:50.689Z,98814.75
2022-12-19T07:06:52.132Z,98822.34
2022-12-19T07:08:53.445Z,98832.56
2022-12-19T07:10:54.948Z,98834.25
2022-12-19T07:12:56.303Z,98836.75
2022-12-19T07:14:57.649Z,98836.69
2022-12-19T07:16:59.006Z,98829.00
2022-12-19T07:19:00.310Z,98827.31
2022-12-19T07:21:01.653Z,98823.84
2022-12-19T07:23:02.986Z,98828.97
2022-12-19T07:25:04.290Z,98819.50
2022-12-19T07:27:08.382Z,98828.91
2022-12-19T07:29:12.695Z,98834.88
2022-12-19T07:31:14.042Z,98823.84
2022-12-19T07:33:21.051Z,98837.53
2022-12-19T07:35:23.142Z,98824.78
2022-12-19T07:37:24.486Z,98828.22
2022-12-19T07:39:25.832Z,98833.41
2022-12-19T07:41:27.300Z,98838.56
2022-12-19T07:43:28.596Z,98844.63
2022-12-19T07:45:30.138Z,98833.59
2022-12-19T07:47:31.474Z,98831.06
2022-12-19T07:49:32.819Z,98834.50
2022-12-19T07:51:34.120Z,98840.50
2022-12-19T07:53:35.424Z,98832.00
2022-12-19T07:55:36.755Z,98829.47
2022-12-19T07:57:38.102Z,98832.91
2022-12-19T07:59:39.624Z,98832.91
2022-12-19T08:01:41.027Z,98828.72
2022-12-19T08:03:42.394Z,98833.81
2022-12-19T08:05:43.704Z,98832.09
2022-12-19T08:07:47.660Z,98833.81
2022-12-19T08:09:49.005Z,98836.31
2022-12-19T08:11:50.346Z,98829.41
2022-12-19T08:13:51.642Z,98826.72
2022-12-19T08:15:53.242Z,98828.25
2022-12-19T08:17:54.604Z,98836.94
2022-12-19T08:19:56.035Z,98827.66
2022-12-19T08:21:57.374Z,98840.13
2022-12-19T08:23:58.699Z,98829.13
2022-12-19T08:26:00.360Z,98824.13
2022-12-19T08:28:01.707Z,98813.94
2022-12-19T08:30:03.002Z,98817.38
2022-12-19T08:32:04.332Z,98821.63
2022-12-19T08:34:05.632Z,98824.97
2022-12-19T08:36:06.968Z,98819.84
2022-12-19T08:38:08.298Z,98823.22
2022-12-19T08:40:09.631Z,98817.22
2022-12-19T08:42:10.943Z,98813.75
2022-12-19T08:44:13.186Z,98804.34
2022-12-19T08:46:14.540Z,98808.59
2022-12-19T08:48:15.913Z,98798.44
2022-12-19T08:50:17.251Z,98799.31
2022-12-19T08:52:18.670Z,98796.81
2022-12-19T08:54:20.059Z,98784.06
2022-12-19T08:56:21.732Z,98777.28
2022-12-19T08:58:23.115Z,98790.06
2022-12-19T09:00:24.833Z,98776.53
2022-12-19T09:02:27.171Z,98770.63
2022-12-19T09:06:02.383Z,98771.50
2022-12-19T09:06:50.080Z,98757.06
2022-12-19T09:08:51.450Z,98775.81
2022-12-19T09:10:54.909Z,98764.78
2022-12-19T09:12:57.754Z,98751.22
2022-12-19T09:14:59.371Z,98758.94
2022-12-19T09:17:00.804Z,98757.31
2022-12-19T09:19:05.559Z,98750.69
2022-12-19T09:21:06.942Z,98743.94
2022-12-19T09:23:09.330Z,98740.22
2022-12-19T09:25:11.065Z,98759.59
2022-12-19T09:27:12.384Z,98782.34
2022-12-19T09:29:20.508Z,98765.94
2022-12-19T09:31:22.884Z,98755.81
2022-12-19T09:33:24.292Z,98749.84
2022-12-19T09:35:30.070Z,98757.16
2022-12-19T09:37:31.903Z,98765.41
2022-12-19T09:39:34.250Z,98743.72
2022-12-19T09:41:35.845Z,98742.41
2022-12-19T09:43:41.228Z,98739.59
2022-12-19T09:45:42.909Z,98737.75
2022-12-19T09:47:44.296Z,98739.28
2022-12-19T09:49:45.610Z,98744.75
2022-12-19T09:51:47.007Z,98747.44
2022-12-19T09:53:53.377Z,98738.97
2022-12-19T09:55:56.247Z,98747.63
2022-12-19T09:57:57.635Z,98743.81
2022-12-19T09:59:58.929Z,98753.69
2022-12-19T10:02:00.349Z,98747.66
2022-12-19T10:04:02.113Z,98738.09
2022-12-19T10:06:58.113Z,98739.78
2022-12-19T10:08:24.738Z,98729.41
2022-12-19T10:12:40.846Z,98722.44
2022-12-19T10:12:52.858Z,98730.22
2022-12-19T10:14:56.172Z,98736.78
2022-12-19T10:17:23.159Z,98735.94
2022-12-19T10:19:18.754Z,98725.78
2022-12-19T10:21:20.115Z,98726.19
2022-12-19T10:23:21.605Z,98719.22
2022-12-19T10:25:23.010Z,98724.63
2022-12-19T10:27:24.325Z,98715.41
2022-12-19T10:29:25.689Z,98718.03
2022-12-19T10:31:27.100Z,98724.91
2022-12-19T10:33:28.492Z,98706.25
2022-12-19T10:35:29.788Z,98705.44
2022-12-19T10:37:41.057Z,98700.34
2022-12-19T10:39:46.849Z,98701.28
2022-12-19T10:41:48.201Z,98694.53
2022-12-19T10:43:49.600Z,98695.47
2022-12-19T10:45:50.943Z,98701.47
2022-12-19T10:47:52.349Z,98695.53
2022-12-19T10:49:53.940Z,98710.94
2022-12-19T10:51:55.303Z,98701.59
2022-12-19T10:53:57.208Z,98692.22
2022-12-19T10:55:58.617Z,98687.22
2022-12-19T10:58:00.142Z,98546.09
2022-12-19T11:00:01.595Z,98690.69
2022-12-19T11:02:07.199Z,98698.31
2022-12-19T11:04:11.770Z,98686.47
2022-12-19T11:06:13.116Z,98695.84
2022-12-19T11:08:14.721Z,98689.94
2022-12-19T11:11:15.507Z,98690.78
2022-12-19T11:16:42.865Z,98689.06
2022-12-19T11:19:41.628Z,98712.88
2022-12-19T11:24:38.757Z,98691.66
2022-12-19T11:29:18.185Z,98686.50
2022-12-19T11:29:30.270Z,98681.38
2022-12-19T11:29:40.720Z,98684.78
2022-12-19T11:30:37.985Z,98676.41
2022-12-19T11:30:48.365Z,98684.84
2022-12-19T11:33:49.477Z,98676.97
2022-12-19T11:35:51.024Z,98683.69
2022-12-19T11:37:55.534Z,98676.84
2022-12-19T11:39:57.302Z,98681.97
2022-12-19T11:41:58.623Z,98691.31
2022-12-19T11:44:02.100Z,98670.78
2022-12-19T11:46:03.477Z,98669.09
2022-12-19T11:48:04.777Z,98669.94
2022-12-19T11:50:06.073Z,98657.13
2022-12-19T11:52:23.707Z,98650.34
2022-12-19T11:54:31.628Z,98646.06
2022-12-19T11:56:32.926Z,98640.13
2022-12-19T11:58:34.291Z,98643.50
2022-12-19T12:00:37.239Z,98652.91
2022-12-19T12:02:38.548Z,98646.91
2022-12-19T12:04:40.010Z,98654.59
2022-12-19T12:06:42.279Z,98653.75
2022-12-19T12:09:48.479Z,98658.88
2022-12-19T12:17:36.128Z,98649.56
2022-12-19T12:24:51.709Z,98642.75
2022-12-19T12:25:50.300Z,98633.97
2022-12-19T12:30:09.089Z,98630.56
2022-12-19T12:31:13.772Z,98620.69
2022-12-19T12:31:31.888Z,98621.41
2022-12-19T12:31:45.496Z,98607.47
2022-12-19T12:31:45.687Z,98615.81
2022-12-19T12:31:57.752Z,98614.84
2022-12-19T12:35:33.637Z,98610.13
2022-12-19T12:35:41.441Z,98612.69
2022-12-19T12:39:29.792Z,98605.91
2022-12-19T12:41:53.072Z,98604.16
2022-12-19T12:43:54.477Z,98596.47
2022-12-19T12:45:55.852Z,98593.91
2022-12-19T12:47:57.185Z,98582.88
2022-12-19T12:50:01.436Z,98575.16
2022-12-19T12:52:02.854Z,98574.31
2022-12-19T12:54:10.383Z,98568.44
2022-12-19T12:56:11.715Z,98570.22
2022-12-19T12:58:15.302Z,98581.41
2022-12-19T13:00:19.269Z,98575.53
2022-12-19T13:02:20.806Z,98582.44
2022-12-19T13:04:22.356Z,98569.72
2022-12-19T13:06:23.959Z,98572.31
2022-12-19T13:08:25.391Z,98581.66
2022-12-19T13:10:26.774Z,98565.47
2022-12-19T13:12:46.979Z,98562.91
2022-12-19T13:14:49.046Z,98554.28
2022-12-19T13:16:50.436Z,98557.59
2022-12-19T13:18:51.750Z,98548.09
2022-12-19T13:20:53.080Z,98551.44
2022-12-19T13:22:54.379Z,98552.25
2022-12-19T13:24:55.679Z,98554.72
2022-12-19T13:26:57.005Z,98559.78
2022-12-19T13:28:58.292Z,98564.84
2022-12-19T13:31:19.208Z,98567.28
2022-12-19T13:33:20.928Z,98565.56
2022-12-19T13:36:59.599Z,98566.38
2022-12-19T13:39:56.273Z,98569.69
2022-12-19T13:40:12.081Z,98571.38
2022-12-19T13:42:32.729Z,98568.75
2022-12-19T13:44:34.062Z,98561.88
2022-12-19T13:46:35.394Z,98552.38
2022-12-19T13:48:36.787Z,98553.28
2022-12-19T13:50:38.137Z,98542.19
2022-12-19T13:52:39.459Z,98549.88
2022-12-19T13:54:40.783Z,98549.94
2022-12-19T13:56:42.111Z,98554.25
2022-12-19T13:58:43.413Z,98549.13
2022-12-19T14:00:50.324Z,98552.53
2022-12-19T14:02:54.905Z,98543.22
2022-12-19T14:04:56.399Z,98544.09
2022-12-19T14:06:57.701Z,98550.91
2022-12-19T14:09:25.136Z,98546.75
2022-12-19T14:11:41.099Z,98397.31
2022-12-19T14:14:08.268Z,98536.59
2022-12-19T14:16:14.448Z,98524.72
2022-12-19T14:18:45.418Z,98530.66
2022-12-19T14:22:03.939Z,98535.78
2022-12-19T14:22:58.451Z,98538.44
2022-12-19T14:25:44.057Z,98527.34
2022-12-19T14:28:25.899Z,98532.53
2022-12-19T14:30:26.260Z,98520.66
2022-12-19T14:33:40.419Z,98526.66
2022-12-19T14:36:48.901Z,98523.28
2022-12-19T14:39:24.087Z,98513.97
2022-12-19T14:41:31.639Z,98515.66
2022-12-19T14:43:59.897Z,98525.91
2022-12-19T14:52:25.848Z,98527.66
2022-12-19T14:54:12.265Z,98536.13
2022-12-19T14:54:15.726Z,98525.06
2022-12-19T14:54:30.494Z,98545.47
2022-12-19T14:56:13.644Z,98478.63
2022-12-19T14:58:54.201Z,98527.53
2022-12-19T15:00:08.712Z,98532.63
2022-12-19T15:02:33.352Z,98524.88
2022-12-19T15:04:51.449Z,98522.25
2022-12-19T15:07:09.248Z,98528.22
2022-12-19T15:10:58.685Z,98523.06
2022-12-19T15:12:04.441Z,98528.22
2022-12-19T15:14:56.894Z,98528.97
2022-12-19T15:16:36.198Z,98528.13
2022-12-19T15:18:38.280Z,98527.31
2022-12-19T15:20:39.588Z,98529.88
2022-12-19T15:22:40.891Z,98534.13
2022-12-19T15:24:48.320Z,98534.97
2022-12-19T15:26:49.607Z,98532.44
2022-12-19T15:28:50.991Z,98502.81
2022-12-19T15:30:52.459Z,98520.47
2022-12-19T15:32:53.776Z,98531.53
2022-12-19T15:34:55.559Z,98536.66
2022-12-19T15:36:59.515Z,98526.38
2022-12-19T15:39:00.825Z,98530.69
2022-12-19T15:41:14.077Z,98538.34
2022-12-19T15:43:53.089Z,98526.44
2022-12-19T15:45:37.224Z,98536.66
2022-12-19T15:47:38.690Z,98527.28
2022-12-19T15:49:39.991Z,98529.91
2022-12-19T15:51:41.285Z,98528.25
2022-12-19T15:53:43.469Z,98529.06
2022-12-19T15:55:44.837Z,98525.66
2022-12-19T15:57:46.251Z,98512.88
2022-12-19T15:59:47.563Z,98518.00
2022-12-19T16:01:49.087Z,98524.00
2022-12-19T16:03:50.926Z,98521.47
2022-12-19T16:05:52.550Z,98518.88
2022-12-19T16:07:54.411Z,98519.78
2022-12-19T16:09:55.783Z,98516.41
2022-12-19T16:11:58.129Z,98510.41
2022-12-19T16:13:59.530Z,98512.09
2022-12-19T16:16:00.904Z,98502.72
2022-12-19T16:18:02.996Z,98503.56
2022-12-19T16:20:04.326Z,98496.81
2022-12-19T16:22:05.608Z,98496.75
2022-12-19T16:24:06.946Z,98505.25
2022-12-19T16:26:08.243Z,98495.00
2022-12-19T16:28:09.635Z,98495.00
2022-12-19T16:30:18.152Z,98488.16
2022-12-19T16:32:20.143Z,98496.72
2022-12-19T16:34:22.470Z,98498.38
2022-12-19T16:36:23.820Z,98490.72
2022-12-19T16:38:28.130Z,98494.16
2022-12-19T16:40:32.379Z,98496.72
2022-12-19T16:42:33.759Z,98488.31
2022-12-19T16:44:35.876Z,98496.72
2022-12-19T16:46:37.245Z,98342.97
2022-12-19T16:48:38.777Z,98486.44
2022-12-19T16:50:40.127Z,98469.50
2022-12-19T16:52:42.882Z,98468.66
2022-12-19T16:54:44.304Z,98468.66
2022-12-19T16:56:48.505Z,98461.00
2022-12-19T16:58:55.931Z,98465.25
2022-12-19T17:00:57.259Z,98465.25
2022-12-19T17:02:58.929Z,98469.53
2022-12-19T17:05:00.361Z,98471.22
2022-12-19T17:07:01.650Z,98473.81
2022-12-19T17:09:03.021Z,98462.00
2022-12-19T17:11:05.082Z,98468.06
2022-12-19T17:13:06.415Z,98465.63
2022-12-19T17:15:07.957Z,98471.75
2022-12-19T17:17:09.305Z,98470.19
2022-12-19T17:19:13.323Z,98473.69
2022-12-19T17:21:14.692Z,98487.28
2022-12-19T17:23:15.996Z,98492.41
2022-12-19T17:25:17.307Z,98506.88
2022-12-19T17:27:19.315Z,98487.25
2022-12-19T17:29:20.702Z,98495.72
2022-12-19T17:31:22.103Z,98477.81
2022-12-19T17:33:29.770Z,98474.31
2022-12-19T17:35:31.106Z,98475.09
2022-12-19T17:37:32.463Z,98487.84
2022-12-19T17:39:33.760Z,98480.91
2022-12-19T17:41:35.081Z,98481.69
2022-12-19T17:43:36.477Z,98474.84
2022-12-19T17:45:40.699Z,98469.72
2022-12-19T17:47:42.160Z,98479.88
2022-12-19T17:49:43.593Z,98467.06
2022-12-19T17:51:44.891Z,98453.41
2022-12-19T17:53:46.207Z,98463.63
2022-12-19T17:55:47.546Z,98472.09
2022-12-19T17:57:48.879Z,98460.16
2022-12-19T17:59:50.237Z,98459.25
2022-12-19T18:01:51.758Z,98463.41
2022-12-19T18:03:53.204Z,98464.19
2022-12-19T18:05:54.523Z,98459.84
2022-12-19T18:07:55.877Z,98463.25
2022-12-19T18:09:57.187Z,98455.63
2022-12-19T18:11:58.575Z,98459.03
2022-12-19T18:13:59.958Z,98457.34
2022-12-19T18:16:04.037Z,98455.63
2022-12-19T18:18:11.242Z,98458.19
2022-12-19T18:20:12.890Z,98461.59
2022-12-19T18:22:14.285Z,98461.59
2022-12-19T18:24:16.713Z,98467.56
2022-12-19T18:26:18.117Z,98433.53
2022-12-19T18:28:19.415Z,98444.63
2022-12-19T18:30:23.635Z,98438.63
2022-12-19T18:32:25.647Z,98442.88
2022-12-19T18:34:26.960Z,98439.47
2022-12-19T18:36:28.297Z,98434.44
2022-12-19T18:38:29.683Z,98448.91
2022-12-19T18:40:32.114Z,98458.25
2022-12-19T18:42:33.548Z,98452.25
2022-12-19T18:44:34.890Z,98464.19
2022-12-19T18:46:39.546Z,98462.50
2022-12-19T18:48:40.906Z,98471.00
2022-12-19T18:50:42.495Z,98472.75
2022-12-19T18:52:43.787Z,98479.56
2022-12-19T18:54:45.137Z,98485.56
2022-12-19T18:56:46.476Z,98483.88
2022-12-19T18:58:48.575Z,98489.81
2022-12-19T19:00:54.165Z,98513.69
2022-12-19T19:02:58.866Z,98505.22
2022-12-19T19:05:03.090Z,98506.97
2022-12-19T19:07:04.459Z,98512.16
2022-12-19T19:09:08.837Z,98506.19
2022-12-19T19:11:10.347Z,98507.94
2022-12-19T19:13:11.684Z,98500.22
2022-12-19T19:15:13.011Z,98493.41
2022-12-19T19:17:14.361Z,98482.28
2022-12-19T19:19:16.685Z,98488.28
2022-12-19T19:21:20.049Z,98484.84
2022-12-19T19:23:21.388Z,98489.06
2022-12-19T19:25:22.773Z,98495.03
2022-12-19T19:27:24.101Z,98487.34
2022-12-19T19:29:25.449Z,98472.03
2022-12-19T19:31:26.851Z,98499.22
2022-12-19T19:33:28.241Z,98489.81
2022-12-19T19:35:29.530Z,98483.06
2022-12-19T19:37:30.869Z,98461.72
2022-12-19T19:39:32.205Z,98452.41
2022-12-19T19:41:36.387Z,98441.38
2022-12-19T19:43:37.722Z,98427.72
2022-12-19T19:45:43.243Z,98449.84
2022-12-19T19:47:45.068Z,98457.50
2022-12-19T19:49:46.460Z,98453.25
2022-12-19T19:51:47.743Z,98439.63
2022-12-19T19:53:49.092Z,98434.47
2022-12-19T19:55:50.390Z,98421.72
2022-12-19T19:57:51.679Z,98408.13
2022-12-19T19:59:53.047Z,98431.06
2022-12-19T20:01:55.134Z,98423.38
2022-12-19T20:03:59.717Z,98426.88
2022-12-19T20:06:04.738Z,98431.09
2022-12-19T20:08:06.568Z,98421.66
2022-12-19T20:10:07.907Z,98422.56
2022-12-19T20:12:09.214Z,98426.81
2022-12-19T20:14:10.507Z,98448.09
2022-12-19T20:16:12.005Z,98464.28
2022-12-19T20:18:13.358Z,98474.56
2022-12-19T20:20:14.699Z,98474.53
2022-12-19T20:22:16.022Z,98460.91
2022-12-19T20:24:17.339Z,98441.34
2022-12-19T20:26:18.707Z,98424.31
2022-12-19T20:28:20.055Z,98411.53
2022-12-19T20:30:21.419Z,98403.91
2022-12-19T20:32:22.776Z,98416.66
2022-12-19T20:34:26.679Z,98399.72
2022-12-19T20:36:28.022Z,98405.63
2022-12-19T20:38:29.337Z,98428.53
2022-12-19T20:40:30.651Z,98409.03
2022-12-19T20:42:32.008Z,98414.19
2022-12-19T20:44:33.321Z,98398.84
2022-12-19T20:46:34.677Z,98398.84
2022-12-19T20:48:42.104Z,98387.78
2022-12-19T20:50:43.550Z,98393.66
2022-12-19T20:52:44.868Z,98418.38
2022-12-19T20:54:46.205Z,98420.94
2022-12-19T20:56:47.550Z,98409.06
2022-12-19T20:58:48.936Z,98407.31
2022-12-19T21:00:50.265Z,98415.03
2022-12-19T21:03:26.308Z,98398.00
2022-12-19T21:05:13.025Z,98415.84
2022-12-19T21:07:14.805Z,98419.22
2022-12-19T21:09:16.248Z,98412.44
2022-12-19T21:11:17.717Z,98400.59
2022-12-19T21:13:19.151Z,98390.34
2022-12-19T21:15:20.509Z,98397.97
2022-12-19T21:17:21.825Z,98384.38
2022-12-19T21:19:23.364Z,98376.78
2022-12-19T21:21:24.838Z,98371.63
2022-12-19T21:23:26.219Z,98376.72
2022-12-19T21:25:27.603Z,98375.88
2022-12-19T21:27:28.930Z,98371.69
2022-12-19T21:29:30.449Z,98393.78
2022-12-19T21:31:31.992Z,98386.94
2022-12-19T21:33:33.444Z,98391.19
2022-12-19T21:35:34.772Z,98401.44
2022-12-19T21:37:43.175Z,98382.72
2022-12-19T21:39:44.911Z,98382.72
2022-12-19T21:41:46.245Z,98379.31
2022-12-19T21:43:47.629Z,98375.06
2022-12-19T21:45:48.966Z,98369.19
2022-12-19T21:47:50.704Z,98380.28
2022-12-19T21:49:51.998Z,98382.03
2022-12-19T21:51:53.396Z,98379.50
2022-12-19T21:53:55.238Z,98372.66
2022-12-19T21:55:56.522Z,98378.63
2022-12-19T21:57:57.896Z,98375.19
2022-12-19T21:59:59.199Z,98363.31
2022-12-19T22:02:00.713Z,98353.16
2022-12-19T22:04:02.334Z,98342.94
2022-12-19T22:06:04.761Z,98339.50
2022-12-19T22:08:06.085Z,98350.59
2022-12-19T22:10:07.419Z,98350.56
2022-12-19T22:12:08.803Z,98349.72
2022-12-19T22:14:10.142Z,98348.94
2022-12-19T22:16:11.482Z,98342.94
2022-12-19T22:18:12.945Z,98333.56
2022-12-19T22:20:14.283Z,98336.13
2022-12-19T22:22:15.591Z,98346.25
2022-12-19T22:24:16.947Z,98343.75
2022-12-19T22:26:20.914Z,98325.13
2022-12-19T22:28:22.214Z,98326.94
2022-12-19T22:30:23.562Z,98321.13
2022-12-19T22:32:24.900Z,98336.59
2022-12-19T22:34:26.238Z,98345.25
2022-12-19T22:36:28.662Z,98325.50
2022-12-19T22:38:30.261Z,98342.63
2022-12-19T22:40:33.133Z,98358.50
2022-12-19T22:42:34.458Z,98359.06
2022-12-19T22:44:35.818Z,98357.00
2022-12-19T22:46:37.161Z,98355.44
2022-12-19T22:48:38.492Z,98354.81
2022-12-19T22:50:39.787Z,98355.38
2022-12-19T22:52:41.157Z,98336.59
2022-12-19T22:54:42.464Z,98337.31
2022-12-19T22:56:43.881Z,98337.16
2022-12-19T22:58:45.238Z,98330.97
2022-12-19T23:00:46.545Z,98340.09
2022-12-19T23:02:48.108Z,98340.81
2022-12-19T23:04:50.460Z,98335.47
2022-12-19T23:06:51.775Z,98338.63
2022-12-19T23:08:53.066Z,98325.78
2022-12-19T23:10:54.509Z,98313.00
2022-12-19T23:12:55.834Z,98313.78
2022-12-19T23:14:57.147Z,98329.50
2022-12-19T23:16:58.480Z,98337.97
2022-12-19T23:18:59.949Z,98330.16
2022-12-19T23:23:02.645Z,98327.47
2022-12-19T23:25:03.986Z,98320.44
2022-12-19T23:27:05.331Z,98314.66
2022-12-19T23:29:06.651Z,98318.28
2022-12-19T23:31:08.022Z,98337.06
2022-12-19T23:33:09.312Z,98338.84
2022-12-19T23:35:10.604Z,98342.94
2022-12-19T23:37:12.796Z,98335.97
2022-12-19T23:39:14.363Z,98342.34
2022-12-19T23:41:15.694Z,98338.81
2022-12-19T23:43:17.104Z,98346.13
2022-12-19T23:45:18.611Z,98343.69
2022-12-19T23:47:20.027Z,98329.44
2022-12-19T23:49:21.315Z,98346.72
2022-12-19T23:51:22.624Z,98345.22
2022-12-19T23:53:23.943Z,98348.72
2022-12-19T23:55:25.396Z,98335.75
2022-12-19T23:57:26.744Z,98339.19
2022-12-19T23:59:28.103Z,98333.56
